Time;durP1;ratioP1;P1;durP2;ratioP2;P2;SDS_P1;SDS_P2;PMS_P1;PMS_P2;Temp;Humidity;BMP_temperature;BMP_pressure;BME280_temperature;BME280_humidity;BME280_pressure;Samples;Min_cycle;Max_cycle;Signal;HPM_P1;HPM_P2
2022/09/21 00:00:27;;;;;;;9.02;3.80;;;;;;;8.94;100.00;102521.91;4897641;29;20032;-83
2022/09/21 00:02:57;;;;;;;6.33;3.20;;;;;;;8.88;100.00;102522.72;4894856;29;20119;-82
2022/09/21 00:05:23;;;;;;;8.15;3.35;;;;;;;8.82;100.00;102518.16;4904225;29;20673;-83
2022/09/21 00:07:49;;;;;;;9.85;3.97;;;;;;;8.69;100.00;102510.16;4896595;29;20477;-83
2022/09/21 00:10:15;;;;;;;8.47;3.53;;;;;;;8.63;100.00;102511.78;4901093;29;20056;-82
2022/09/21 00:12:42;;;;;;;7.75;3.42;;;;;;;8.61;100.00;102520.00;4894450;29;20477;-83
2022/09/21 00:15:09;;;;;;;7.20;4.03;;;;;;;8.54;100.00;102521.84;4894642;29;20033;-83
2022/09/21 00:17:36;;;;;;;5.27;3.73;;;;;;;8.47;100.00;102510.28;4896988;29;20425;-83
2022/09/21 00:20:05;;;;;;;6.82;3.50;;;;;;;8.46;100.00;102522.00;4897712;29;20031;-83
2022/09/21 00:22:33;;;;;;;5.32;3.65;;;;;;;8.25;100.00;102490.91;4897912;29;20020;-82
2022/09/21 00:25:01;;;;;;;10.30;3.67;;;;;;;8.27;100.00;102499.56;4906683;29;20036;-83
2022/09/21 00:27:28;;;;;;;5.68;3.60;;;;;;;8.25;100.00;102507.75;4901077;29;20035;-82
2022/09/21 00:30:05;;;;;;;6.80;3.67;;;;;;;8.12;100.00;102495.19;4916002;29;20030;-83
2022/09/21 00:32:32;;;;;;;9.95;3.65;;;;;;;8.11;100.00;102511.41;4898765;29;20028;-82
2022/09/21 00:34:59;;;;;;;8.95;4.07;;;;;;;7.97;100.00;102506.03;4915040;29;20028;-82
2022/09/21 00:37:26;;;;;;;5.95;3.95;;;;;;;8.00;100.00;102524.31;4916167;29;20036;-83
2022/09/21 00:39:52;;;;;;;8.83;4.60;;;;;;;8.02;100.00;102526.78;4914474;29;20032;-83
2022/09/21 00:42:21;;;;;;;6.80;4.23;;;;;;;8.01;100.00;102528.63;4914143;29;20343;-82
2022/09/21 00:44:48;;;;;;;5.88;4.28;;;;;;;8.04;100.00;102520.19;4897950;29;20115;-82
2022/09/21 00:47:41;;;;;;;7.72;4.38;;;;;;;8.03;100.00;102521.22;4897251;29;20438;-83
2022/09/21 00:50:12;;;;;;;5.80;4.07;;;;;;;8.04;100.00;102514.84;4894035;29;20064;-83
2022/09/21 00:52:42;;;;;;;8.93;4.45;;;;;;;8.07;100.00;102521.66;4912081;29;20032;-83
2022/09/21 00:55:17;;;;;;;9.07;4.30;;;;;;;8.01;100.00;102514.44;4916316;29;20020;-83
2022/09/21 00:57:45;;;;;;;7.65;4.00;;;;;;;8.13;100.00;102520.03;4916262;29;20028;-82
2022/09/21 01:00:11;;;;;;;8.97;4.30;;;;;;;8.19;100.00;102532.59;4906206;29;20073;-82
2022/09/21 01:02:37;;;;;;;7.23;4.10;;;;;;;8.14;100.00;102517.16;4897078;29;20492;-82
2022/09/21 01:05:05;;;;;;;9.73;4.85;;;;;;;8.17;100.00;102510.63;4905361;29;20429;-82
2022/09/21 01:07:34;;;;;;;7.82;4.50;;;;;;;8.23;100.00;102519.66;4913727;29;20084;-82
2022/09/21 01:10:05;;;;;;;7.47;3.93;;;;;;;8.17;100.00;102524.78;4915332;29;20046;-83
2022/09/21 01:12:52;;;;;;;6.07;4.17;;;;;;;8.12;100.00;102515.72;4914852;29;20347;-82
2022/09/21 01:15:41;;;;;;;8.63;4.07;;;;;;;8.19;100.00;102529.94;4897266;29;20039;-82
2022/09/21 01:18:09;;;;;;;11.98;5.32;;;;;;;8.19;100.00;102528.06;4911379;29;20494;-83
2022/09/21 01:21:12;;;;;;;8.77;4.30;;;;;;;8.16;100.00;102523.13;4915058;29;20543;-82
2022/09/21 01:23:42;;;;;;;8.95;4.30;;;;;;;8.13;100.00;102530.72;4915370;29;20492;-83
2022/09/21 01:26:11;;;;;;;9.88;4.15;;;;;;;8.11;100.00;102536.28;4911245;29;20154;-83
2022/09/21 01:29:13;;;;;;;9.77;4.53;;;;;;;8.11;100.00;102530.09;4895757;29;20032;-83
2022/09/21 01:31:48;;;;;;;7.25;4.05;;;;;;;8.07;100.00;102526.16;4908369;29;20040;-83
2022/09/21 01:34:29;;;;;;;7.85;4.78;;;;;;;7.93;100.00;102514.63;4902232;29;20032;-83
2022/09/21 01:36:57;;;;;;;8.40;4.03;;;;;;;7.96;100.00;102525.72;4896653;29;20063;-83
2022/09/21 01:39:25;;;;;;;9.20;4.50;;;;;;;7.86;100.00;102509.22;4912690;29;20307;-83
2022/09/21 01:41:51;;;;;;;14.32;4.65;;;;;;;7.92;100.00;102527.13;4914989;29;20032;-83
2022/09/21 01:44:22;;;;;;;13.90;4.80;;;;;;;7.84;100.00;102514.78;4915334;29;20055;-82
2022/09/21 01:46:48;;;;;;;11.90;4.68;;;;;;;7.86;100.00;102522.56;4914202;29;20131;-83
2022/09/21 01:49:20;;;;;;;9.65;4.18;;;;;;;7.79;100.00;102509.22;4915287;29;20024;-83
2022/09/21 01:51:53;;;;;;;8.23;4.47;;;;;;;7.86;100.00;102517.25;4896981;29;20029;-83
2022/09/21 01:54:22;;;;;;;6.85;4.60;;;;;;;7.72;100.00;102506.50;4879388;29;20369;-82
2022/09/21 01:57:20;;;;;;;8.55;4.35;;;;;;;7.84;100.00;102520.13;4896203;29;20025;-82
2022/09/21 01:59:54;;;;;;;9.82;4.28;;;;;;;7.85;100.00;102519.09;4899920;29;20055;-83
2022/09/21 02:02:31;;;;;;;10.07;4.23;;;;;;;7.85;100.00;102515.63;4901563;29;20032;-82
2022/09/21 02:05:00;;;;;;;11.40;4.63;;;;;;;7.83;100.00;102513.13;4888407;29;20297;-83
2022/09/21 02:07:25;;;;;;;10.00;4.60;;;;;;;7.77;100.00;102513.09;4885526;29;20119;-83
2022/09/21 02:09:53;;;;;;;6.25;4.20;;;;;;;7.81;100.00;102519.69;4895694;29;20560;-82
2022/09/21 02:12:18;;;;;;;11.98;4.47;;;;;;;7.80;100.00;102518.84;4895629;29;20032;-83
2022/09/21 02:14:44;;;;;;;7.10;4.37;;;;;;;7.68;100.00;102507.91;4896215;29;20040;-83
2022/09/21 02:17:37;;;;;;;11.53;4.67;;;;;;;7.71;100.00;102528.88;4895565;29;20060;-83
2022/09/21 02:20:30;;;;;;;9.75;4.47;;;;;;;7.65;100.00;102521.69;4895682;29;20033;-83
2022/09/21 02:23:12;;;;;;;12.13;4.53;;;;;;;7.55;100.00;102518.53;4895834;29;20028;-83
2022/09/21 02:25:47;;;;;;;7.28;4.00;;;;;;;7.54;100.00;102527.53;4911333;29;20043;-82
2022/09/21 02:28:25;;;;;;;10.05;4.88;;;;;;;7.44;100.00;102514.53;4899447;29;20044;-82
2022/09/21 02:31:04;;;;;;;6.18;4.53;;;;;;;7.39;100.00;102525.81;4895077;29;20064;-83
2022/09/21 02:33:40;;;;;;;8.32;4.55;;;;;;;7.30;100.00;102512.81;4895112;29;20520;-83
2022/09/21 02:36:27;;;;;;;10.47;4.27;;;;;;;7.28;100.00;102518.34;4904880;29;20119;-83
2022/09/21 02:39:04;;;;;;;6.87;4.20;;;;;;;7.15;100.00;102512.91;4914553;29;20636;-83
2022/09/21 02:41:37;;;;;;;9.32;4.15;;;;;;;7.06;100.00;102513.06;4913442;29;20044;-82
2022/09/21 02:44:11;;;;;;;14.07;4.40;;;;;;;7.01;100.00;102519.97;4914405;29;20024;-82
2022/09/21 02:46:45;;;;;;;8.68;4.38;;;;;;;6.95;100.00;102521.56;4910151;29;20043;-83
2022/09/21 02:49:37;;;;;;;8.13;4.40;;;;;;;6.93;100.00;102518.28;4910564;29;20036;-83
2022/09/21 02:52:08;;;;;;;7.38;4.65;;;;;;;6.84;100.00;102519.41;4886189;29;20036;-82
2022/09/21 02:54:35;;;;;;;7.00;4.30;;;;;;;6.80;100.00;102526.97;4910074;29;20029;-83
2022/09/21 02:57:01;;;;;;;6.13;4.35;;;;;;;6.62;100.00;102504.25;4894692;29;20024;-83
2022/09/21 02:59:27;;;;;;;6.32;4.20;;;;;;;6.55;100.00;102510.53;4894676;29;20040;-82
2022/09/21 03:01:54;;;;;;;8.90;4.23;;;;;;;6.59;100.00;102519.78;4906636;29;20535;-82
2022/09/21 03:04:20;;;;;;;10.00;4.55;;;;;;;6.45;100.00;102506.34;4913576;29;20028;-83
2022/09/21 03:06:46;;;;;;;8.93;4.47;;;;;;;6.47;100.00;102516.81;4913080;29;20032;-83
2022/09/21 03:09:11;;;;;;;8.60;5.00;;;;;;;6.38;100.00;102508.13;4914384;29;20047;-82
2022/09/21 03:11:37;;;;;;;9.77;4.40;;;;;;;6.32;100.00;102508.84;4911297;29;20807;-82
2022/09/21 03:14:07;;;;;;;8.15;4.55;;;;;;;6.20;100.00;102504.03;4914044;29;20051;-83
2022/09/21 03:16:33;;;;;;;8.43;4.60;;;;;;;6.20;100.00;102512.00;4912077;29;20111;-83
2022/09/21 03:18:58;;;;;;;6.57;4.60;;;;;;;6.18;100.00;102519.34;4914105;29;20471;-82
2022/09/21 03:21:23;;;;;;;7.27;4.50;;;;;;;6.10;100.00;102513.31;4913216;29;20640;-82
2022/09/21 03:23:49;;;;;;;7.63;4.57;;;;;;;6.17;100.00;102522.19;4912496;29;20036;-84
2022/09/21 03:26:14;;;;;;;8.13;4.43;;;;;;;6.06;100.00;102499.53;4913052;29;20075;-83
2022/09/21 03:28:39;;;;;;;8.97;4.30;;;;;;;6.19;100.00;102520.16;4910408;29;20043;-83
2022/09/21 03:31:05;;;;;;;10.20;4.57;;;;;;;6.13;100.00;102524.41;4912285;29;20028;-84
2022/09/21 03:33:31;;;;;;;8.43;4.95;;;;;;;6.05;100.00;102521.84;4909366;29;20563;-84
2022/09/21 03:35:56;;;;;;;7.50;4.77;;;;;;;6.05;100.00;102524.50;4913648;29;20032;-84
2022/09/21 03:38:22;;;;;;;7.30;4.45;;;;;;;5.93;100.00;102515.31;4913491;29;20079;-84
2022/09/21 03:40:48;;;;;;;10.87;4.80;;;;;;;5.91;100.00;102526.16;4913177;29;20503;-83
2022/09/21 03:43:14;;;;;;;6.05;4.20;;;;;;;5.95;100.00;102537.25;4910174;29;20020;-84
2022/09/21 03:45:41;;;;;;;7.50;4.57;;;;;;;5.93;100.00;102515.31;4900600;29;20053;-83
2022/09/21 03:48:07;;;;;;;7.55;4.30;;;;;;;5.91;100.00;102521.63;4896457;29;20036;-82
2022/09/21 03:50:33;;;;;;;8.80;4.55;;;;;;;6.00;100.00;102537.56;4899564;29;20761;-82
2022/09/21 03:52:58;;;;;;;9.80;4.73;;;;;;;5.86;100.00;102510.72;4898679;29;20036;-82
2022/09/21 03:55:24;;;;;;;9.53;4.77;;;;;;;5.98;100.00;102536.88;4898185;29;20068;-82
2022/09/21 03:57:50;;;;;;;5.00;4.25;;;;;;;5.96;100.00;102537.03;4911381;29;20092;-82
2022/09/21 04:00:15;;;;;;;11.30;5.10;;;;;;;5.91;100.00;102528.81;4916531;29;20028;-83
2022/09/21 04:02:40;;;;;;;8.43;4.85;;;;;;;5.89;100.00;102526.31;4894631;29;20020;-82
2022/09/21 04:05:07;;;;;;;6.73;4.37;;;;;;;5.94;100.00;102544.38;4898553;29;20028;-82
2022/09/21 04:07:34;;;;;;;6.78;4.53;;;;;;;5.94;100.00;102535.59;4908959;29;20032;-82
2022/09/21 04:10:00;;;;;;;6.57;4.60;;;;;;;5.92;100.00;102533.13;4922645;29;20055;-82
2022/09/21 04:12:26;;;;;;;8.17;4.40;;;;;;;5.98;100.00;102536.88;4925484;29;20723;-82
2022/09/21 04:14:51;;;;;;;8.25;4.70;;;;;;;5.97;100.00;102532.56;4917104;29;20046;-82
2022/09/21 04:17:18;;;;;;;6.37;4.50;;;;;;;5.93;100.00;102536.59;4913875;29;20730;-84
2022/09/21 04:19:46;;;;;;;8.65;4.32;;;;;;;5.93;100.00;102529.47;4902984;29;20036;-83
2022/09/21 04:22:12;;;;;;;8.73;4.55;;;;;;;6.00;100.00;102537.56;4898037;29;20028;-83
2022/09/21 04:24:39;;;;;;;9.90;5.07;;;;;;;6.00;100.00;102542.88;4897533;29;20029;-83
2022/09/21 04:27:08;;;;;;;9.10;4.65;;;;;;;6.00;100.00;102543.69;4897476;29;20036;-83
2022/09/21 04:29:33;;;;;;;7.68;4.60;;;;;;;5.87;100.00;102527.53;4897788;29;20048;-83
2022/09/21 04:31:59;;;;;;;9.97;4.40;;;;;;;5.94;100.00;102540.91;4914195;29;20032;-83
2022/09/21 04:34:24;;;;;;;6.55;4.32;;;;;;;5.87;100.00;102538.97;4916662;29;20032;-83
2022/09/21 04:36:49;;;;;;;9.37;4.50;;;;;;;5.89;100.00;102542.28;4915531;29;20048;-83
2022/09/21 04:39:15;;;;;;;7.27;4.70;;;;;;;5.87;100.00;102554.94;4916850;29;20489;-83
2022/09/21 04:41:41;;;;;;;5.90;4.53;;;;;;;5.72;100.00;102535.50;4908119;29;20032;-83
2022/09/21 04:44:06;;;;;;;7.90;4.47;;;;;;;5.72;100.00;102543.47;4921242;29;20043;-83
2022/09/21 04:46:32;;;;;;;8.03;4.33;;;;;;;5.68;100.00;102542.19;4925166;29;20029;-83
2022/09/21 04:48:57;;;;;;;7.45;4.60;;;;;;;5.63;100.00;102536.59;4916531;29;20067;-82
2022/09/21 04:51:22;;;;;;;10.80;4.80;;;;;;;5.56;100.00;102537.31;4924280;29;20407;-82
2022/09/21 04:53:48;;;;;;;9.13;4.67;;;;;;;5.52;100.00;102544.00;4896983;29;20456;-82
2022/09/21 04:56:15;;;;;;;8.90;4.50;;;;;;;5.51;100.00;102545.00;4893838;29;20861;-82
2022/09/21 04:58:41;;;;;;;12.15;4.57;;;;;;;5.57;100.00;102557.59;4915228;29;20024;-82
2022/09/21 05:01:06;;;;;;;6.88;4.65;;;;;;;5.49;100.00;102541.72;4886651;29;20028;-82
2022/09/21 05:03:32;;;;;;;11.57;4.03;;;;;;;5.57;100.00;102554.09;4909986;29;20036;-82
2022/09/21 05:05:57;;;;;;;10.63;5.20;;;;;;;5.52;100.00;102557.31;4914942;29;20044;-82
2022/09/21 05:11:12;;;;;;;9.90;4.32;;;;;;;5.44;100.00;102557.41;4896953;29;20051;-82
2022/09/21 05:13:41;;;;;;;9.93;4.40;;;;;;;5.31;100.00;102547.38;4911049;29;20047;-83
2022/09/21 05:16:07;;;;;;;9.50;4.72;;;;;;;5.33;100.00;102563.13;4883192;29;20051;-82
2022/09/21 05:18:33;;;;;;;7.40;4.00;;;;;;;5.28;100.00;102555.69;4896819;29;20028;-82
2022/09/21 05:21:00;;;;;;;26.63;7.10;;;;;;;5.28;100.00;102559.19;4909914;29;20288;-82
2022/09/21 05:23:28;;;;;;;10.50;4.40;;;;;;;5.25;100.00;102562.22;4909829;29;20080;-83
2022/09/21 05:25:54;;;;;;;9.93;4.65;;;;;;;5.27;100.00;102560.22;4909835;29;20548;-82
2022/09/21 05:28:20;;;;;;;6.72;4.70;;;;;;;5.26;100.00;102563.88;4915747;29;20080;-82
2022/09/21 05:30:56;;;;;;;8.63;4.93;;;;;;;5.16;100.00;102552.66;4914319;29;20047;-83
2022/09/21 05:33:25;;;;;;;8.57;5.00;;;;;;;5.22;100.00;102561.72;4913978;29;20432;-82
2022/09/21 05:35:51;;;;;;;9.50;5.00;;;;;;;5.25;100.00;102572.00;4916052;29;20280;-82
2022/09/21 05:38:18;;;;;;;8.87;5.30;;;;;;;5.26;100.00;102573.66;4910917;29;20111;-82
2022/09/21 05:40:46;;;;;;;14.77;7.30;;;;;;;5.28;100.00;102569.84;4914276;29;20303;-83
2022/09/21 05:43:11;;;;;;;14.48;7.90;;;;;;;5.36;100.00;102578.72;4905767;29;20400;-81
2022/09/21 05:45:43;;;;;;;15.00;8.13;;;;;;;5.35;100.00;102580.56;4900695;29;20046;-81
2022/09/21 05:48:31;;;;;;;12.88;6.93;;;;;;;5.33;100.00;102574.59;4914947;29;20059;-82
2022/09/21 05:51:27;;;;;;;11.30;6.75;;;;;;;5.42;100.00;102584.16;4899090;29;20024;-81
2022/09/21 05:54:21;;;;;;;9.93;5.57;;;;;;;5.48;100.00;102589.75;4905647;29;20048;-81
2022/09/21 05:57:15;;;;;;;9.80;5.80;;;;;;;5.56;100.00;102585.19;4897634;29;20772;-80
2022/09/21 05:59:57;;;;;;;11.50;5.65;;;;;;;5.68;100.00;102595.38;4905419;29;20051;-80
2022/09/21 06:02:25;;;;;;;12.57;5.82;;;;;;;5.71;100.00;102593.19;4912112;29;20052;-80
2022/09/21 06:04:55;;;;;;;9.70;5.20;;;;;;;5.78;100.00;102592.47;4883766;29;20396;-79
2022/09/21 06:07:20;;;;;;;9.23;5.20;;;;;;;5.83;100.00;102600.72;4904020;29;20119;-79
2022/09/21 06:09:45;;;;;;;11.63;5.73;;;;;;;5.90;100.00;102604.31;4905146;29;20455;-80
2022/09/21 06:12:11;;;;;;;8.73;5.73;;;;;;;5.94;100.00;102608.25;4915479;29;20039;-80
2022/09/21 06:14:36;;;;;;;10.63;6.22;;;;;;;5.95;100.00;102599.25;4914126;29;20488;-81
2022/09/21 06:17:02;;;;;;;10.30;5.80;;;;;;;6.02;100.00;102605.53;4914932;29;20028;-82
2022/09/21 06:19:27;;;;;;;10.30;6.03;;;;;;;6.09;100.00;102602.16;4914462;29;20122;-81
2022/09/21 06:21:53;;;;;;;15.13;6.07;;;;;;;6.17;100.00;102602.88;4912162;29;20035;-81
2022/09/21 06:24:18;;;;;;;13.33;6.83;;;;;;;6.26;100.00;102610.75;4910775;29;20036;-81
2022/09/21 06:26:43;;;;;;;15.50;6.50;;;;;;;6.35;100.00;102612.34;4901509;29;20051;-82
2022/09/21 06:29:08;;;;;;;12.67;7.37;;;;;;;6.40;100.00;102609.91;4914655;29;20028;-82
2022/09/21 06:31:35;;;;;;;11.40;6.50;;;;;;;6.44;100.00;102600.56;4913257;29;20031;-82
2022/09/21 06:34:00;;;;;;;13.95;8.10;;;;;;;6.61;100.00;102611.81;4911704;29;20064;-80
2022/09/21 06:36:26;;;;;;;17.43;8.50;;;;;;;6.69;100.00;102602.91;4903285;29;20484;-80
2022/09/21 06:38:51;;;;;;;14.13;8.23;;;;;;;6.74;100.00;102602.31;4907815;29;20072;-81
2022/09/21 06:41:16;;;;;;;14.60;8.77;;;;;;;6.77;100.00;102602.75;4895068;29;20037;-81
2022/09/21 06:43:41;;;;;;;18.40;10.50;;;;;;;6.82;100.00;102611.03;4904341;29;20075;-80
2022/09/21 06:46:07;;;;;;;20.60;10.53;;;;;;;6.91;100.00;102608.25;4907339;29;20044;-80
2022/09/21 06:48:33;;;;;;;22.87;10.33;;;;;;;6.94;100.00;102602.53;4909889;29;20028;-80
2022/09/21 06:51:05;;;;;;;17.40;10.57;;;;;;;7.02;100.00;102605.06;4905749;29;20469;-80
2022/09/21 06:53:33;;;;;;;15.88;10.18;;;;;;;7.11;100.00;102608.44;4915543;29;20483;-80
2022/09/21 06:56:06;;;;;;;19.30;10.73;;;;;;;7.18;100.00;102608.50;4922629;29;20459;-80
2022/09/21 06:58:33;;;;;;;18.08;10.23;;;;;;;7.27;100.00;102607.38;4912138;29;20040;-81
2022/09/21 07:01:04;;;;;;;20.05;10.80;;;;;;;7.35;100.00;102612.53;4907431;29;20029;-81
2022/09/21 07:03:30;;;;;;;18.80;9.68;;;;;;;7.43;100.00;102607.09;4905899;29;20028;-81
2022/09/21 07:05:55;;;;;;;21.45;11.20;;;;;;;7.51;100.00;102610.63;4914001;29;20095;-82
2022/09/21 07:08:22;;;;;;;21.70;10.77;;;;;;;7.60;100.00;102613.97;4912343;29;20028;-81
2022/09/21 07:10:47;;;;;;;20.88;10.82;;;;;;;7.63;100.00;102603.75;4911458;29;20036;-81
2022/09/21 07:13:12;;;;;;;85.90;14.40;;;;;;;7.73;100.00;102627.44;4896968;29;20024;-83
2022/09/21 07:15:38;;;;;;;107.97;15.63;;;;;;;7.73;100.00;102609.56;4910838;29;20028;-82
2022/09/21 07:18:10;;;;;;;16.93;9.10;;;;;;;7.94;100.00;102623.06;4914040;29;20036;-81
2022/09/21 07:20:35;;;;;;;23.08;10.77;;;;;;;8.10;100.00;102619.22;4900734;29;20400;-82
2022/09/21 07:23:14;;;;;;;20.73;11.03;;;;;;;8.15;100.00;102619.47;4908304;29;20029;-83
2022/09/21 07:25:40;;;;;;;21.02;11.57;;;;;;;8.26;100.00;102621.56;4903991;29;20060;-82
2022/09/21 07:28:06;;;;;;;19.92;11.70;;;;;;;8.40;100.00;102624.31;4913355;29;20040;-82
2022/09/21 07:30:31;;;;;;;20.85;10.25;;;;;;;8.47;100.00;102620.66;4902210;29;20373;-81
2022/09/21 07:32:57;;;;;;;29.17;10.63;;;;;;;8.53;100.00;102605.69;4907965;29;20032;-82
2022/09/21 07:35:23;;;;;;;18.27;9.88;;;;;;;8.70;100.00;102611.50;4901482;29;20055;-81
2022/09/21 07:37:48;;;;;;;16.83;10.03;;;;;;;8.71;100.00;102612.34;4900810;29;20024;-82
2022/09/21 07:40:13;;;;;;;18.03;9.90;;;;;;;8.83;100.00;102609.91;4881744;29;20049;-82
2022/09/21 07:42:39;;;;;;;42.28;10.60;;;;;;;8.94;100.00;102603.94;4897841;29;20060;-81
2022/09/21 07:45:04;;;;;;;25.13;8.70;;;;;;;9.09;100.00;102614.47;4897660;29;20032;-81
2022/09/21 07:47:30;;;;;;;23.75;8.30;;;;;;;9.15;100.00;102612.81;4898309;29;20029;-81
2022/09/21 07:49:55;;;;;;;13.20;7.07;;;;;;;9.19;100.00;102596.16;4907403;29;20028;-81
2022/09/21 07:52:21;;;;;;;30.23;7.63;;;;;;;9.31;100.00;102607.06;4907002;29;20035;-81
2022/09/21 07:54:46;;;;;;;25.40;7.10;;;;;;;9.40;100.00;102605.00;4881922;29;20033;-82
2022/09/21 07:59:57;;;;;;;13.68;5.95;;;;;;;9.55;100.00;102605.63;4913877;29;20047;-81
2022/09/21 08:02:23;;;;;;;12.43;4.70;;;;;;;9.65;100.00;102604.38;4902721;29;20389;-81
2022/09/21 08:04:48;;;;;;;72.97;7.70;;;;;;;9.74;100.00;102603.13;4915503;29;20060;-82
2022/09/21 08:07:13;;;;;;;30.53;5.60;;;;;;;9.87;100.00;102604.13;4913542;29;20039;-81
2022/09/21 08:09:39;;;;;;;10.68;5.07;;;;;;;10.01;100.00;102608.44;4911850;29;20028;-81
2022/09/21 08:12:05;;;;;;;13.30;5.57;;;;;;;10.08;100.00;102601.19;4887481;29;20119;-81
2022/09/21 08:14:31;;;;;;;9.57;4.68;;;;;;;10.10;100.00;102596.44;4897684;29;20476;-82
2022/09/21 08:16:56;;;;;;;124.47;11.20;;;;;;;10.26;100.00;102610.41;4898011;29;20040;-81
2022/09/21 08:19:25;;;;;;;25.17;5.13;;;;;;;10.29;100.00;102602.78;4879862;29;20044;-81
2022/09/21 08:21:51;;;;;;;18.73;5.05;;;;;;;10.38;100.00;102600.72;4903201;29;20115;-81
2022/09/21 08:24:16;;;;;;;9.33;3.60;;;;;;;10.47;100.00;102611.19;4911181;29;20144;-81
2022/09/21 08:26:41;;;;;;;109.47;8.87;;;;;;;10.52;100.00;102611.38;4901817;29;20033;-81
2022/09/21 08:29:07;;;;;;;30.63;4.90;;;;;;;10.54;100.00;102604.75;4916610;29;20047;-81
2022/09/21 08:31:32;;;;;;;29.48;4.43;;;;;;;10.72;100.00;102616.63;4889089;29;20040;-81
2022/09/21 08:33:58;;;;;;;10.77;3.20;;;;;;;10.77;100.00;102613.31;4904325;29;20020;-81
2022/09/21 08:36:25;;;;;;;6.90;2.85;;;;;;;10.87;100.00;102619.81;4911065;29;20059;-81
2022/09/21 08:38:50;;;;;;;19.00;3.38;;;;;;;10.98;100.00;102623.69;4907813;29;20510;-81
2022/09/21 08:41:52;;;;;;;11.07;3.03;;;;;;;11.04;100.00;102612.09;4916039;29;20036;-81
2022/09/21 08:44:40;;;;;;;24.02;2.92;;;;;;;11.13;100.00;102619.91;4911229;29;20040;-80
2022/09/21 08:47:14;;;;;;;11.18;2.95;;;;;;;11.21;100.00;102615.06;4908268;29;20059;-81
2022/09/21 08:49:41;;;;;;;15.15;2.75;;;;;;;11.25;100.00;102612.78;4901121;29;20528;-81
2022/09/21 08:52:13;;;;;;;12.10;2.30;;;;;;;11.35;98.14;102610.41;4913272;29;20024;-81
2022/09/21 08:54:54;;;;;;;6.23;2.07;;;;;;;11.48;96.55;102619.41;4906854;29;20335;-81
2022/09/21 08:57:24;;;;;;;8.15;2.05;;;;;;;11.54;96.29;102620.38;4901831;29;20038;-81
2022/09/21 08:59:50;;;;;;;7.45;1.92;;;;;;;11.63;96.17;102625.25;4887286;29;20056;-81
2022/09/21 09:02:27;;;;;;;10.35;1.60;;;;;;;11.73;95.95;102627.44;4899727;29;20032;-80
2022/09/21 09:05:11;;;;;;;3.97;1.15;;;;;;;11.83;93.13;102632.31;4899725;29;20477;-81
2022/09/21 09:08:01;;;;;;;4.78;1.20;;;;;;;11.97;93.05;102627.59;4913435;29;20117;-80
2022/09/21 09:10:57;;;;;;;4.22;1.17;;;;;;;11.92;93.71;102622.09;4899211;29;20531;-82
2022/09/21 09:13:57;;;;;;;44.92;3.60;;;;;;;12.01;94.48;102625.34;4900482;29;20021;-81
2022/09/21 09:16:39;;;;;;;7.80;1.30;;;;;;;12.09;90.94;102631.22;4885306;29;20048;-81
2022/09/21 09:19:34;;;;;;;6.57;1.00;;;;;;;12.11;92.46;102628.31;4915396;29;20032;-82
2022/09/21 09:22:04;;;;;;;5.13;0.93;;;;;;;12.14;92.28;102632.44;4909615;29;20285;-81
2022/09/21 09:24:40;;;;;;;4.90;0.95;;;;;;;12.14;92.37;102633.25;4895895;29;20061;-81
2022/09/21 09:27:29;;;;;;;510.92;34.92;;;;;;;12.19;89.89;102638.78;4912340;29;20032;-81
2022/09/21 09:30:16;;;;;;;35.63;2.53;;;;;;;12.21;90.02;102639.38;4898077;29;20127;-81
2022/09/21 09:32:53;;;;;;;6.88;1.40;;;;;;;12.29;88.65;102638.25;4911384;29;20028;-79
2022/09/21 09:35:24;;;;;;;9.32;1.30;;;;;;;12.30;90.32;102631.81;4911505;29;20039;-81
2022/09/21 09:37:53;;;;;;;9.82;0.90;;;;;;;12.38;87.82;102633.38;4904946;29;20040;-82
2022/09/21 09:40:47;;;;;;;41.72;3.50;;;;;;;12.56;87.34;102627.16;4913883;29;20127;-81
2022/09/21 09:43:29;;;;;;;6.13;1.20;;;;;;;12.67;85.85;102647.91;4911752;29;20134;-81
2022/09/21 09:46:24;;;;;;;10.63;1.40;;;;;;;12.70;87.48;102641.25;4915420;29;20036;-81
2022/09/21 09:49:26;;;;;;;51.93;4.40;;;;;;;12.82;86.64;102636.72;4895600;29;20757;-81
2022/09/21 09:51:52;;;;;;;8.70;1.00;;;;;;;13.00;80.97;102629.63;4895899;29;20037;-81
2022/09/21 09:54:21;;;;;;;4.82;1.00;;;;;;;13.12;81.55;102627.81;4905275;29;20039;-81
2022/09/21 09:56:48;;;;;;;6.30;1.23;;;;;;;13.28;79.76;102626.31;4900953;29;20056;-81
2022/09/21 09:59:28;;;;;;;3.77;1.03;;;;;;;13.39;80.66;102627.38;4912319;29;20380;-82
2022/09/21 10:02:06;;;;;;;3.93;0.90;;;;;;;13.60;79.33;102628.69;4914706;29;20276;-82
2022/09/21 10:04:33;;;;;;;4.30;0.90;;;;;;;13.88;74.06;102635.25;4913955;29;20020;-82
2022/09/21 10:07:00;;;;;;;3.13;1.00;;;;;;;14.16;74.15;102630.16;4913692;29;20028;-82
2022/09/21 10:09:33;;;;;;;7.07;1.23;;;;;;;14.49;73.05;102628.66;4910750;29;20084;-82
2022/09/21 10:12:16;;;;;;;9.05;1.30;;;;;;;14.91;73.94;102624.84;4919887;29;20036;-83
2022/09/21 10:14:55;;;;;;;3.50;0.95;;;;;;;15.22;70.36;102630.78;4915111;29;20044;-82
2022/09/21 10:17:23;;;;;;;3.20;0.68;;;;;;;15.49;65.43;102630.94;4901140;29;20051;-82
2022/09/21 10:20:01;;;;;;;11.45;1.00;;;;;;;15.75;67.84;102629.44;4916813;29;20034;-82
2022/09/21 10:22:28;;;;;;;4.22;0.80;;;;;;;15.99;63.46;102633.81;4897328;29;20028;-82
2022/09/21 10:24:55;;;;;;;2.00;0.60;;;;;;;16.27;63.77;102634.69;4912193;29;20040;-82
2022/09/21 10:27:44;;;;;;;3.83;0.90;;;;;;;16.29;66.78;102632.56;4906836;29;20379;-83
2022/09/21 10:30:31;;;;;;;3.13;0.77;;;;;;;16.04;66.23;102636.59;4896044;29;20059;-82
2022/09/21 10:32:58;;;;;;;2.40;0.60;;;;;;;15.82;63.21;102621.16;4914242;29;20035;-82
2022/09/21 10:35:24;;;;;;;3.72;0.68;;;;;;;15.82;64.06;102621.16;4905955;29;20032;-82
2022/09/21 10:38:09;;;;;;;2.53;0.60;;;;;;;15.87;65.79;102623.13;4919732;29;20037;-82
2022/09/21 10:40:38;;;;;;;1.77;0.52;;;;;;;15.90;62.05;102620.72;4919094;29;20455;-82
2022/09/21 10:43:04;;;;;;;5.40;0.82;;;;;;;15.75;61.51;102615.09;4914692;29;20028;-82
2022/09/21 10:45:33;;;;;;;1.60;0.70;;;;;;;15.55;61.34;102611.03;4895641;29;20047;-81
2022/09/21 10:48:05;;;;;;;5.13;0.70;;;;;;;15.42;62.57;102614.09;4911614;29;20395;-82
2022/09/21 10:50:44;;;;;;;3.08;0.60;;;;;;;15.23;61.91;102610.84;4900687;29;20087;-82
2022/09/21 10:53:09;;;;;;;3.33;0.88;;;;;;;15.08;61.99;102614.91;4913782;29;20643;-82
2022/09/21 10:55:49;;;;;;;2.90;0.70;;;;;;;14.83;63.92;102591.00;4911676;29;20040;-82
2022/09/21 10:58:15;;;;;;;1.75;0.50;;;;;;;14.86;62.65;102609.41;4914013;29;20036;-82
2022/09/21 11:00:45;;;;;;;6.10;0.70;;;;;;;14.76;61.47;102607.34;4895125;29;20040;-81
2022/09/21 11:03:28;;;;;;;6.63;0.80;;;;;;;14.83;66.21;102617.97;4895466;29;20474;-82
2022/09/21 11:06:04;;;;;;;7.35;1.05;;;;;;;14.78;65.33;102604.41;4902206;29;20121;-83
2022/09/21 11:08:39;;;;;;;1.83;0.53;;;;;;;14.87;65.67;102618.34;4913758;29;20721;-82
2022/09/21 11:11:17;;;;;;;1.97;0.70;;;;;;;14.84;63.85;102606.97;4913258;29;20280;-82
2022/09/21 11:13:56;;;;;;;4.47;0.77;;;;;;;14.77;64.07;102611.69;4895230;29;20595;-82
2022/09/21 11:16:45;;;;;;;2.72;0.65;;;;;;;14.76;65.26;102611.94;4894340;29;20028;-82
2022/09/21 11:19:23;;;;;;;5.82;0.70;;;;;;;14.68;65.10;102611.25;4878827;29;20045;-82
2022/09/21 11:22:30;;;;;;;2.53;0.70;;;;;;;14.60;66.99;102605.41;4911535;29;20131;-82
2022/09/21 11:25:01;;;;;;;5.05;0.93;;;;;;;14.68;66.29;102615.84;4906318;29;20069;-82
2022/09/21 11:27:35;;;;;;;3.00;0.82;;;;;;;14.91;66.05;102603.25;4912071;29;20099;-82
2022/09/21 11:30:06;;;;;;;1.02;0.60;;;;;;;15.37;58.47;102595.09;4911133;29;20036;-82
2022/09/21 11:32:31;;;;;;;2.17;0.70;;;;;;;15.80;52.91;102604.34;4894314;29;20036;-81
2022/09/21 11:35:42;;;;;;;3.90;0.60;;;;;;;16.32;55.65;102602.31;4902969;29;20616;-81
2022/09/21 11:38:29;;;;;;;3.17;0.70;;;;;;;16.81;55.65;102607.66;4910515;29;20095;-82
2022/09/21 11:41:23;;;;;;;2.90;0.50;;;;;;;17.34;55.12;102606.22;4911974;29;20413;-82
2022/09/21 11:44:09;;;;;;;2.57;0.50;;;;;;;17.67;48.00;102591.53;4914049;29;20283;-82
2022/09/21 11:46:45;;;;;;;2.58;0.63;;;;;;;17.97;50.83;102595.47;4912740;29;20131;-82